Time;durP1;ratioP1;P1;durP2;ratioP2;P2;SDS_P1;SDS_P2;PMS_P1;PMS_P2;Temp;Humidity;BMP_temperature;BMP_pressure;BME280_temperature;BME280_humidity;BME280_pressure;Samples;Min_cycle;Max_cycle;Signal;HPM_P1;HPM_P2
2022/10/21 00:00:53;;;;;;;12.70;5.70;;;15.80;99.90;;;;;;5076054;28;20469;-80
2022/10/21 00:03:20;;;;;;;13.70;6.55;;;15.80;99.90;;;;;;5075914;28;20027;-80
2022/10/21 00:05:46;;;;;;;10.52;5.75;;;15.80;99.90;;;;;;5093726;28;20032;-80
2022/10/21 00:08:12;;;;;;;9.40;6.03;;;15.80;99.90;;;;;;5075094;28;20028;-79
2022/10/21 00:10:37;;;;;;;13.15;6.70;;;15.70;99.90;;;;;;5075420;28;20527;-79
2022/10/21 00:13:03;;;;;;;11.27;5.75;;;15.70;99.90;;;;;;5074964;28;20036;-80
2022/10/21 00:15:29;;;;;;;14.10;6.40;;;15.70;99.90;;;;;;5093417;28;20111;-80
2022/10/21 00:17:54;;;;;;;15.02;5.80;;;15.80;99.90;;;;;;5075516;28;20039;-82
2022/10/21 00:20:20;;;;;;;13.68;6.90;;;15.80;99.90;;;;;;5075214;28;20494;-79
2022/10/21 00:22:46;;;;;;;13.85;6.53;;;15.80;99.90;;;;;;5075438;28;20024;-80
2022/10/21 00:25:11;;;;;;;13.13;5.72;;;15.80;99.90;;;;;;5075184;28;20123;-80
2022/10/21 00:27:37;;;;;;;11.10;6.43;;;15.80;99.90;;;;;;5075447;28;20050;-79
2022/10/21 00:30:05;;;;;;;14.02;6.53;;;15.90;99.90;;;;;;5074698;28;20025;-80
2022/10/21 00:32:31;;;;;;;14.10;6.22;;;15.90;99.90;;;;;;5075393;28;20024;-80
2022/10/21 00:34:56;;;;;;;12.60;6.45;;;15.90;99.90;;;;;;5074952;28;20028;-83
2022/10/21 00:37:22;;;;;;;13.82;6.47;;;15.90;99.90;;;;;;5075007;28;20467;-80
2022/10/21 00:39:47;;;;;;;10.18;6.43;;;15.80;99.90;;;;;;5093352;28;20028;-80
2022/10/21 00:42:17;;;;;;;14.95;6.05;;;15.90;99.90;;;;;;5092722;28;20458;-80
2022/10/21 00:44:43;;;;;;;11.63;6.20;;;15.90;99.90;;;;;;5075441;28;20028;-80
2022/10/21 00:47:19;;;;;;;11.18;6.07;;;15.90;99.90;;;;;;5074675;28;20126;-80
2022/10/21 00:49:57;;;;;;;12.38;6.00;;;15.90;99.90;;;;;;5075305;28;20028;-80
2022/10/21 00:52:23;;;;;;;11.43;6.05;;;15.90;99.90;;;;;;5075270;28;20477;-80
2022/10/21 00:54:52;;;;;;;10.68;5.75;;;15.80;99.90;;;;;;5075260;28;20070;-80
2022/10/21 00:57:19;;;;;;;13.43;5.95;;;15.80;99.90;;;;;;5074714;28;20028;-80
2022/10/21 00:59:50;;;;;;;12.90;6.03;;;15.80;99.90;;;;;;5075075;28;20032;-80
2022/10/21 01:02:16;;;;;;;12.70;6.10;;;15.80;99.90;;;;;;5074782;28;20029;-79
2022/10/21 01:04:43;;;;;;;13.45;5.70;;;15.80;99.90;;;;;;5075573;28;20028;-80
2022/10/21 01:07:09;;;;;;;12.48;6.32;;;15.70;99.90;;;;;;5074632;28;20040;-80
2022/10/21 01:09:35;;;;;;;13.65;6.03;;;15.70;99.90;;;;;;5075164;28;20055;-80
2022/10/21 01:12:02;;;;;;;15.75;6.38;;;15.70;99.90;;;;;;5074866;28;20453;-82
2022/10/21 01:14:40;;;;;;;10.98;5.78;;;15.60;99.90;;;;;;5076267;28;20020;-80
2022/10/21 01:17:46;;;;;;;11.90;6.07;;;15.60;99.90;;;;;;5079012;28;20028;-79
2022/10/21 01:20:30;;;;;;;11.52;6.15;;;15.60;99.90;;;;;;5078585;28;20538;-80
2022/10/21 01:23:12;;;;;;;14.77;5.80;;;15.50;99.90;;;;;;5078891;28;20028;-80
2022/10/21 01:26:02;;;;;;;11.40;6.15;;;15.50;99.90;;;;;;5079104;28;20492;-80
2022/10/21 01:28:43;;;;;;;14.70;5.68;;;15.50;99.90;;;;;;5078883;28;20090;-80
2022/10/21 01:31:14;;;;;;;12.77;6.00;;;15.50;99.90;;;;;;5096555;28;20032;-80
2022/10/21 01:33:47;;;;;;;10.15;5.93;;;15.40;99.90;;;;;;5078961;28;20085;-80
2022/10/21 01:36:38;;;;;;;13.15;5.95;;;15.40;99.90;;;;;;5078148;28;20105;-80
2022/10/21 01:39:18;;;;;;;12.98;5.55;;;15.30;99.90;;;;;;5095943;28;20020;-80
2022/10/21 01:41:50;;;;;;;16.55;6.18;;;15.30;99.90;;;;;;5078434;28;20039;-80
2022/10/21 01:44:22;;;;;;;14.45;6.47;;;15.30;99.90;;;;;;5078108;28;20036;-80
2022/10/21 01:47:01;;;;;;;14.32;6.10;;;15.30;99.90;;;;;;5078768;28;20038;-80
2022/10/21 01:49:34;;;;;;;10.73;4.90;;;15.30;99.90;;;;;;5078360;28;20028;-80
2022/10/21 01:52:01;;;;;;;15.35;5.15;;;15.30;99.90;;;;;;5078526;28;20028;-80
2022/10/21 01:54:34;;;;;;;11.15;6.20;;;15.30;99.90;;;;;;5078179;28;20066;-80
2022/10/21 01:57:02;;;;;;;13.63;6.07;;;15.30;99.90;;;;;;5096272;28;20051;-80
2022/10/21 01:59:30;;;;;;;11.82;5.60;;;15.30;99.90;;;;;;5077959;28;20024;-79
2022/10/21 02:01:58;;;;;;;10.00;5.32;;;15.30;99.90;;;;;;5078117;28;20020;-79
2022/10/21 02:04:25;;;;;;;11.93;5.53;;;15.30;99.90;;;;;;5077798;28;20028;-80
2022/10/21 02:06:50;;;;;;;10.52;5.15;;;15.30;99.90;;;;;;5078023;28;20528;-80
2022/10/21 02:09:16;;;;;;;11.25;5.40;;;15.30;99.90;;;;;;5077593;28;20119;-79
2022/10/21 02:11:45;;;;;;;12.18;5.28;;;15.30;99.90;;;;;;5096086;28;20031;-80
2022/10/21 02:14:22;;;;;;;12.15;5.30;;;15.40;99.90;;;;;;5077690;28;20024;-80
2022/10/21 02:16:50;;;;;;;8.00;4.90;;;15.40;99.90;;;;;;5078035;28;20125;-80
2022/10/21 02:19:18;;;;;;;12.23;5.68;;;15.40;99.90;;;;;;5077492;28;20028;-80
2022/10/21 02:21:46;;;;;;;11.40;4.65;;;15.30;99.90;;;;;;5077943;28;20081;-79
2022/10/21 02:24:34;;;;;;;11.05;5.20;;;15.30;99.90;;;;;;5077433;28;20473;-79
2022/10/21 02:26:59;;;;;;;9.38;5.13;;;15.30;99.90;;;;;;5077389;28;20131;-80
2022/10/21 02:29:31;;;;;;;8.95;4.93;;;15.30;99.90;;;;;;5094945;28;20060;-79
2022/10/21 02:32:27;;;;;;;14.73;5.30;;;15.20;99.90;;;;;;5077931;28;20028;-80
2022/10/21 02:35:16;;;;;;;10.88;5.13;;;15.20;99.90;;;;;;5077495;28;20036;-80
2022/10/21 02:37:52;;;;;;;10.57;5.15;;;15.20;99.90;;;;;;5077724;28;20109;-79
2022/10/21 02:40:33;;;;;;;9.15;4.90;;;15.20;99.90;;;;;;5095192;28;20047;-81
2022/10/21 02:43:10;;;;;;;8.93;5.07;;;15.20;99.90;;;;;;5077769;28;20024;-81
2022/10/21 02:45:38;;;;;;;11.30;5.35;;;15.30;99.90;;;;;;5077584;28;20028;-81
2022/10/21 02:48:04;;;;;;;13.57;5.60;;;15.20;99.90;;;;;;5095018;28;20030;-83
2022/10/21 02:50:29;;;;;;;10.57;5.00;;;15.30;99.90;;;;;;5076993;28;20101;-81
2022/10/21 02:52:55;;;;;;;11.13;5.43;;;15.20;99.90;;;;;;5095275;28;20430;-81
2022/10/21 02:55:21;;;;;;;12.55;5.68;;;15.20;99.90;;;;;;5076621;28;20526;-81
2022/10/21 02:57:46;;;;;;;10.52;5.35;;;15.20;99.90;;;;;;5077189;28;20038;-79
2022/10/21 03:00:13;;;;;;;9.38;4.93;;;15.20;99.90;;;;;;5076551;28;20458;-80
2022/10/21 03:02:38;;;;;;;10.07;5.65;;;15.20;99.90;;;;;;5094870;28;20069;-79
2022/10/21 03:05:04;;;;;;;10.75;5.60;;;15.20;99.90;;;;;;5076366;28;20028;-80
2022/10/21 03:07:30;;;;;;;10.70;5.13;;;15.20;99.90;;;;;;5075968;28;20024;-79
2022/10/21 03:09:55;;;;;;;8.85;5.32;;;15.20;99.90;;;;;;5076289;28;20031;-79
2022/10/21 03:12:21;;;;;;;8.27;5.10;;;15.20;99.90;;;;;;5075438;28;20020;-79
2022/10/21 03:14:46;;;;;;;9.10;4.70;;;15.20;99.90;;;;;;5076120;28;20474;-79
2022/10/21 03:17:12;;;;;;;13.18;5.60;;;15.10;99.90;;;;;;5075488;28;20028;-79
2022/10/21 03:19:37;;;;;;;7.90;4.78;;;15.10;99.90;;;;;;5076307;28;20384;-79
2022/10/21 03:22:03;;;;;;;8.48;4.90;;;15.10;99.90;;;;;;5076027;28;20031;-79
2022/10/21 03:24:28;;;;;;;9.63;4.82;;;15.10;99.90;;;;;;5093483;28;20097;-79
2022/10/21 03:26:55;;;;;;;10.55;5.28;;;15.10;99.90;;;;;;5072412;28;20058;-79
2022/10/21 03:29:20;;;;;;;8.80;4.95;;;15.00;99.90;;;;;;5071334;28;20024;-79
2022/10/21 03:31:46;;;;;;;12.57;5.30;;;15.00;99.90;;;;;;5072782;28;20035;-79
2022/10/21 03:34:11;;;;;;;12.60;5.05;;;15.00;99.90;;;;;;5072328;28;20495;-79
2022/10/21 03:36:37;;;;;;;11.52;5.03;;;15.00;99.90;;;;;;5072058;28;20041;-79
2022/10/21 03:39:03;;;;;;;9.82;5.03;;;15.00;99.90;;;;;;5072718;28;20128;-79
2022/10/21 03:41:28;;;;;;;8.55;4.93;;;15.00;99.90;;;;;;5072169;28;20028;-79
2022/10/21 03:43:54;;;;;;;10.85;5.15;;;15.00;99.90;;;;;;5072269;28;20024;-79
2022/10/21 03:46:19;;;;;;;8.82;4.95;;;15.00;99.90;;;;;;5072150;28;20033;-79
2022/10/21 03:48:45;;;;;;;14.55;5.45;;;15.00;99.90;;;;;;5072899;28;20039;-80
2022/10/21 03:51:10;;;;;;;9.52;4.72;;;15.00;99.90;;;;;;5072352;28;20036;-81
2022/10/21 03:53:36;;;;;;;12.98;5.05;;;15.00;99.90;;;;;;5072712;28;20024;-79
2022/10/21 03:56:01;;;;;;;9.02;5.03;;;15.00;99.90;;;;;;5073702;28;20032;-80
2022/10/21 03:58:27;;;;;;;7.82;4.65;;;15.10;99.90;;;;;;5072145;28;20033;-80
2022/10/21 04:00:53;;;;;;;13.98;4.80;;;15.00;99.90;;;;;;5072424;28;20358;-80
2022/10/21 04:03:19;;;;;;;21.10;4.88;;;15.00;99.90;;;;;;5072309;28;20109;-80
2022/10/21 04:05:45;;;;;;;19.90;5.22;;;15.00;99.90;;;;;;5072439;28;20035;-79
2022/10/21 04:08:11;;;;;;;15.35;5.25;;;15.00;99.90;;;;;;5073271;28;20028;-82
2022/10/21 04:10:36;;;;;;;69.80;7.38;;;15.00;99.90;;;;;;5072717;28;20119;-80
2022/10/21 04:13:02;;;;;;;23.45;5.53;;;15.00;99.90;;;;;;5072504;28;20025;-80
2022/10/21 04:15:27;;;;;;;15.10;5.47;;;15.00;99.90;;;;;;5071561;28;20158;-80
2022/10/21 04:17:53;;;;;;;15.07;4.93;;;15.00;99.90;;;;;;5072645;28;20028;-80
2022/10/21 04:20:19;;;;;;;65.75;6.70;;;15.00;99.90;;;;;;5071774;28;20031;-80
2022/10/21 04:22:44;;;;;;;17.40;5.50;;;15.00;99.90;;;;;;5071859;28;20086;-80
2022/10/21 04:25:10;;;;;;;43.00;6.35;;;14.90;99.90;;;;;;5073048;28;20033;-80
2022/10/21 04:27:35;;;;;;;16.60;4.75;;;14.90;99.90;;;;;;5071625;28;20048;-80
2022/10/21 04:30:01;;;;;;;23.88;6.03;;;14.90;99.90;;;;;;5072295;28;20025;-80
2022/10/21 04:32:26;;;;;;;9.00;5.28;;;14.90;99.90;;;;;;5071203;28;20448;-80
2022/10/21 04:34:52;;;;;;;8.98;5.40;;;14.90;99.90;;;;;;5072033;28;20033;-79
2022/10/21 04:37:18;;;;;;;9.73;5.30;;;15.00;99.90;;;;;;5071972;28;20067;-79
2022/10/21 04:39:44;;;;;;;6.47;4.65;;;14.90;99.90;;;;;;5072427;28;20025;-80
2022/10/21 04:42:09;;;;;;;7.65;5.40;;;15.00;99.90;;;;;;5072203;28;20028;-81
2022/10/21 04:44:38;;;;;;;11.63;4.93;;;15.00;99.90;;;;;;5071812;28;20540;-79
2022/10/21 04:47:04;;;;;;;7.68;4.45;;;15.00;99.90;;;;;;5072029;28;20025;-80
2022/10/21 04:49:29;;;;;;;9.40;4.60;;;15.00;99.90;;;;;;5073770;28;20037;-79
2022/10/21 04:51:55;;;;;;;6.68;4.43;;;15.00;99.90;;;;;;5075978;28;20389;-79
2022/10/21 04:54:21;;;;;;;5.38;4.18;;;15.00;99.90;;;;;;5075861;28;20112;-81
2022/10/21 04:56:46;;;;;;;8.38;5.05;;;15.10;99.90;;;;;;5076115;28;20060;-81
2022/10/21 04:59:12;;;;;;;9.95;5.50;;;15.10;99.90;;;;;;5075963;28;20029;-82
2022/10/21 05:01:38;;;;;;;7.20;4.93;;;15.10;99.90;;;;;;5076296;28;20029;-82
2022/10/21 05:04:03;;;;;;;12.80;5.78;;;15.10;99.90;;;;;;5076497;28;20367;-82
2022/10/21 05:06:29;;;;;;;8.73;4.47;;;15.10;99.90;;;;;;5075196;28;20035;-82
2022/10/21 05:08:55;;;;;;;13.63;5.70;;;15.10;99.90;;;;;;5076042;28;20032;-81
2022/10/21 05:11:20;;;;;;;10.95;6.10;;;15.10;99.90;;;;;;5075815;28;20485;-81
2022/10/21 05:13:46;;;;;;;9.27;5.97;;;15.10;99.90;;;;;;5075990;28;20020;-81
2022/10/21 05:16:11;;;;;;;10.07;6.00;;;15.10;99.90;;;;;;5075796;28;20028;-81
2022/10/21 05:18:37;;;;;;;11.70;6.25;;;15.10;99.90;;;;;;5076412;28;20032;-80
2022/10/21 05:21:02;;;;;;;11.63;6.07;;;15.10;99.90;;;;;;5075729;28;20155;-80
2022/10/21 05:23:28;;;;;;;11.45;6.43;;;15.00;99.90;;;;;;5075063;28;20032;-80
2022/10/21 05:25:54;;;;;;;12.25;6.60;;;15.10;99.90;;;;;;5075725;28;20032;-80
2022/10/21 05:28:20;;;;;;;13.55;6.78;;;15.10;99.90;;;;;;5075022;28;20068;-81
2022/10/21 05:30:46;;;;;;;8.80;5.97;;;15.10;99.90;;;;;;5075377;28;20020;-80
2022/10/21 05:33:12;;;;;;;13.45;6.10;;;15.10;99.90;;;;;;5075387;28;20028;-80
2022/10/21 05:35:37;;;;;;;9.45;6.68;;;15.10;99.90;;;;;;5074880;28;20439;-80
2022/10/21 05:38:03;;;;;;;10.68;6.32;;;15.00;99.90;;;;;;5076632;28;20032;-80
2022/10/21 05:40:30;;;;;;;10.60;5.82;;;15.10;99.90;;;;;;5075063;28;20067;-80
2022/10/21 05:42:55;;;;;;;9.90;5.25;;;15.10;99.90;;;;;;5075475;28;20124;-80
2022/10/21 05:45:21;;;;;;;10.23;5.80;;;15.10;99.90;;;;;;5075010;28;20063;-80
2022/10/21 05:47:47;;;;;;;9.40;5.80;;;15.10;99.90;;;;;;5075283;28;20025;-80
2022/10/21 05:50:13;;;;;;;8.73;5.60;;;15.00;99.90;;;;;;5076367;28;20405;-79
2022/10/21 05:52:39;;;;;;;9.25;6.07;;;15.10;99.90;;;;;;5074978;28;20039;-81
2022/10/21 05:55:06;;;;;;;12.48;5.63;;;15.10;99.90;;;;;;5075143;28;20429;-81
2022/10/21 05:57:33;;;;;;;9.23;5.72;;;15.00;99.90;;;;;;5075796;28;20071;-81
2022/10/21 05:59:58;;;;;;;8.23;5.57;;;15.00;99.90;;;;;;5074763;28;20029;-80
2022/10/21 06:02:24;;;;;;;10.55;6.00;;;15.00;99.90;;;;;;5074114;28;20024;-79
2022/10/21 06:04:50;;;;;;;12.90;6.13;;;15.00;99.90;;;;;;5074493;28;20108;-79
2022/10/21 06:07:15;;;;;;;9.05;5.72;;;15.00;99.90;;;;;;5075726;28;20070;-81
2022/10/21 06:09:41;;;;;;;11.98;6.25;;;15.10;99.90;;;;;;5075547;28;20454;-80
2022/10/21 06:12:07;;;;;;;9.82;5.88;;;15.10;99.90;;;;;;5074604;28;20056;-79
2022/10/21 06:14:34;;;;;;;10.90;6.28;;;15.10;99.90;;;;;;5074181;28;20458;-79
2022/10/21 06:17:00;;;;;;;9.35;5.85;;;15.10;99.90;;;;;;5074565;28;20037;-79
2022/10/21 06:19:25;;;;;;;9.30;6.15;;;15.10;99.90;;;;;;5074185;28;20029;-79
2022/10/21 06:21:53;;;;;;;14.10;6.47;;;15.10;99.90;;;;;;5074522;28;20028;-80
2022/10/21 06:24:19;;;;;;;12.68;6.30;;;15.20;99.90;;;;;;5074069;28;20028;-80
2022/10/21 06:26:44;;;;;;;10.60;6.18;;;15.10;99.90;;;;;;5085099;28;20052;-80
2022/10/21 06:29:10;;;;;;;10.77;5.93;;;15.10;99.90;;;;;;5094971;28;20024;-80
2022/10/21 06:31:36;;;;;;;12.65;6.90;;;15.10;99.90;;;;;;5093611;28;20758;-79
2022/10/21 06:34:01;;;;;;;11.10;6.50;;;15.10;99.90;;;;;;5094245;28;20407;-79
2022/10/21 06:36:28;;;;;;;10.55;6.18;;;15.10;99.90;;;;;;5093717;28;20044;-80
2022/10/21 06:38:54;;;;;;;12.18;5.95;;;15.20;99.90;;;;;;5094519;28;20050;-80
2022/10/21 06:41:19;;;;;;;15.18;6.85;;;15.20;99.90;;;;;;5094032;28;20528;-83
2022/10/21 06:43:45;;;;;;;11.52;6.22;;;15.20;99.90;;;;;;5095549;28;20032;-80
2022/10/21 06:46:13;;;;;;;11.75;6.57;;;15.20;99.90;;;;;;5094570;28;20069;-80
2022/10/21 06:48:38;;;;;;;14.50;6.45;;;15.20;99.90;;;;;;5094715;28;20031;-80
2022/10/21 06:51:07;;;;;;;9.45;6.13;;;15.20;99.90;;;;;;5094470;28;20024;-80
2022/10/21 06:53:33;;;;;;;12.73;6.35;;;15.20;99.90;;;;;;5093625;28;20059;-79
2022/10/21 06:56:11;;;;;;;12.10;6.40;;;15.20;99.90;;;;;;5094300;28;20160;-81
2022/10/21 06:58:38;;;;;;;12.52;6.32;;;15.20;99.90;;;;;;5093662;28;20093;-81
2022/10/21 07:01:08;;;;;;;12.18;6.22;;;15.30;99.90;;;;;;5094269;28;20020;-80
2022/10/21 07:03:34;;;;;;;11.93;6.28;;;15.20;99.90;;;;;;5093489;28;20067;-81
2022/10/21 07:06:00;;;;;;;11.48;5.90;;;15.20;99.90;;;;;;5095135;28;20036;-81
2022/10/21 07:08:27;;;;;;;14.93;6.25;;;15.30;99.90;;;;;;5093941;28;20123;-80
2022/10/21 07:10:53;;;;;;;11.93;5.70;;;15.30;99.90;;;;;;5094441;28;20032;-81
2022/10/21 07:13:19;;;;;;;9.68;6.25;;;15.20;99.90;;;;;;5093172;28;20028;-82
2022/10/21 07:15:45;;;;;;;15.43;8.02;;;15.30;99.90;;;;;;5093479;28;20461;-80
2022/10/21 07:18:11;;;;;;;18.73;8.10;;;15.30;99.90;;;;;;5094986;28;20059;-81
2022/10/21 07:20:36;;;;;;;13.27;6.72;;;15.30;99.90;;;;;;5093436;28;20035;-80
2022/10/21 07:23:02;;;;;;;12.68;6.97;;;15.30;99.90;;;;;;5093837;28;20024;-81
2022/10/21 07:25:28;;;;;;;13.43;7.57;;;15.40;99.90;;;;;;5094289;28;20045;-80
2022/10/21 07:27:53;;;;;;;11.00;6.82;;;15.40;99.90;;;;;;5093134;28;20047;-79
2022/10/21 07:30:19;;;;;;;12.32;6.10;;;15.40;99.90;;;;;;5093478;28;20043;-79
2022/10/21 07:32:45;;;;;;;16.48;6.97;;;15.40;99.90;;;;;;5092982;28;20488;-80
2022/10/21 07:35:10;;;;;;;12.05;6.53;;;15.50;99.90;;;;;;5093203;28;20047;-80
2022/10/21 07:37:36;;;;;;;12.38;6.90;;;15.40;99.90;;;;;;5092930;28;20032;-80
2022/10/21 07:40:02;;;;;;;10.77;6.35;;;15.50;99.90;;;;;;5093421;28;20024;-79
2022/10/21 07:42:27;;;;;;;16.10;6.80;;;15.50;99.90;;;;;;5092958;28;20104;-79
2022/10/21 07:44:58;;;;;;;12.63;7.30;;;15.50;99.90;;;;;;5093424;28;20032;-81
2022/10/21 07:47:24;;;;;;;11.30;7.00;;;15.50;99.90;;;;;;5093176;28;20055;-81
2022/10/21 07:49:50;;;;;;;12.52;7.53;;;15.50;99.90;;;;;;5093415;28;20038;-81
2022/10/21 07:52:16;;;;;;;12.82;6.30;;;15.50;99.90;;;;;;5093431;28;20036;-82
2022/10/21 07:54:41;;;;;;;18.55;7.18;;;15.50;99.90;;;;;;5092653;28;20016;-80
2022/10/21 07:57:07;;;;;;;12.63;6.70;;;15.50;99.90;;;;;;5094179;28;20050;-80
2022/10/21 07:59:32;;;;;;;13.20;6.43;;;15.50;99.90;;;;;;5092645;28;20082;-80
2022/10/21 08:01:58;;;;;;;13.45;6.47;;;15.50;99.90;;;;;;5093958;28;20020;-79
2022/10/21 08:04:28;;;;;;;15.25;6.95;;;15.60;99.90;;;;;;5093363;28;20476;-81
2022/10/21 08:06:54;;;;;;;14.20;6.03;;;15.60;99.90;;;;;;5092742;28;20048;-79
2022/10/21 08:09:20;;;;;;;16.65;6.55;;;15.60;99.90;;;;;;5092657;28;20024;-79
2022/10/21 08:11:46;;;;;;;10.88;5.20;;;15.60;99.90;;;;;;5092323;28;20028;-79
2022/10/21 08:14:12;;;;;;;13.30;6.63;;;15.60;99.90;;;;;;5093020;28;20031;-79
2022/10/21 08:16:38;;;;;;;17.88;7.10;;;15.60;99.90;;;;;;5091891;28;20036;-80
2022/10/21 08:19:05;;;;;;;11.30;6.32;;;15.50;99.90;;;;;;5093688;28;20388;-79
2022/10/21 08:21:30;;;;;;;12.13;6.53;;;15.60;99.90;;;;;;5092873;28;20476;-79
2022/10/21 08:23:57;;;;;;;12.40;6.13;;;15.60;99.90;;;;;;5091984;28;20056;-79
2022/10/21 08:26:23;;;;;;;13.00;6.35;;;15.60;99.90;;;;;;5093685;28;20028;-82
2022/10/21 08:28:49;;;;;;;16.58;7.05;;;15.60;99.90;;;;;;5097122;28;20524;-80
2022/10/21 08:31:18;;;;;;;12.55;6.32;;;15.60;99.90;;;;;;5103605;28;20058;-80
2022/10/21 08:33:44;;;;;;;16.13;6.82;;;15.60;99.90;;;;;;5121206;28;20016;-79
2022/10/21 08:36:22;;;;;;;14.18;6.57;;;15.60;99.90;;;;;;5117233;28;20039;-80
2022/10/21 08:38:48;;;;;;;13.15;7.22;;;15.60;99.90;;;;;;5098684;28;20063;-79
2022/10/21 08:41:25;;;;;;;13.52;6.68;;;15.60;99.90;;;;;;5114326;28;20046;-80
2022/10/21 08:43:53;;;;;;;17.20;6.15;;;15.60;99.90;;;;;;5095993;28;20032;-80
2022/10/21 08:46:26;;;;;;;12.70;5.68;;;15.60;99.90;;;;;;5099872;28;20118;-80
2022/10/21 08:49:27;;;;;;;14.13;6.07;;;15.60;99.90;;;;;;5101294;28;20034;-81
2022/10/21 08:52:04;;;;;;;16.15;5.97;;;15.70;99.90;;;;;;5015537;28;20035;-80
2022/10/21 08:54:40;;;;;;;11.43;6.03;;;15.60;99.90;;;;;;5097847;28;20024;-80
2022/10/21 08:57:09;;;;;;;11.48;4.95;;;15.70;99.90;;;;;;5096251;28;20071;-79
2022/10/21 08:59:34;;;;;;;9.38;4.70;;;15.80;99.90;;;;;;5096574;28;20032;-79
2022/10/21 09:02:32;;;;;;;8.07;4.28;;;15.80;99.90;;;;;;5097640;28;20076;-81
2022/10/21 09:05:31;;;;;;;9.23;4.22;;;15.90;99.90;;;;;;5095679;28;20020;-80
2022/10/21 09:08:16;;;;;;;8.52;3.75;;;15.90;99.90;;;;;;5095599;28;20067;-81
2022/10/21 09:11:06;;;;;;;12.68;4.38;;;15.90;99.90;;;;;;5094538;28;20024;-81
2022/10/21 09:13:37;;;;;;;10.27;4.15;;;16.00;99.90;;;;;;5095220;28;20042;-82
2022/10/21 09:16:12;;;;;;;7.28;3.28;;;16.10;99.90;;;;;;5113488;28;20087;-79
2022/10/21 09:19:02;;;;;;;12.15;4.00;;;16.20;99.90;;;;;;5094751;28;20521;-79
2022/10/21 09:21:55;;;;;;;11.65;3.58;;;16.20;99.90;;;;;;5095042;28;20023;-81
2022/10/21 09:24:48;;;;;;;7.93;3.13;;;16.30;99.90;;;;;;5094325;28;20080;-79
2022/10/21 09:27:14;;;;;;;9.45;3.38;;;16.30;99.90;;;;;;5094535;28;20048;-79
2022/10/21 09:29:43;;;;;;;9.85;3.25;;;16.30;99.90;;;;;;5077869;28;20077;-80
2022/10/21 09:32:28;;;;;;;7.47;3.38;;;16.30;99.90;;;;;;5113342;28;20110;-79
2022/10/21 09:35:01;;;;;;;8.63;3.15;;;16.30;99.90;;;;;;5091378;28;20027;-79
2022/10/21 09:37:44;;;;;;;9.02;3.00;;;16.40;99.90;;;;;;5098281;28;20028;-80
2022/10/21 09:40:20;;;;;;;7.85;2.72;;;16.40;99.90;;;;;;5098206;28;20020;-79
2022/10/21 09:42:49;;;;;;;6.70;3.03;;;16.30;99.90;;;;;;5088502;28;20483;-80
2022/10/21 09:45:31;;;;;;;5.85;2.55;;;16.30;99.90;;;;;;5077776;28;20032;-79
2022/10/21 09:48:04;;;;;;;7.57;2.58;;;16.30;99.90;;;;;;5115193;28;20461;-81
2022/10/21 09:50:32;;;;;;;6.57;2.20;;;16.30;99.90;;;;;;5098411;28;20035;-83
2022/10/21 09:53:11;;;;;;;7.55;2.10;;;16.30;99.90;;;;;;5112239;28;20489;-83
2022/10/21 09:55:38;;;;;;;6.60;2.45;;;16.30;99.90;;;;;;5096371;28;20032;-78
2022/10/21 09:58:03;;;;;;;5.03;2.30;;;16.30;99.90;;;;;;5076165;28;20024;-79
2022/10/21 10:00:59;;;;;;;7.35;2.60;;;16.30;99.90;;;;;;5078465;28;20032;-80
2022/10/21 10:03:36;;;;;;;4.32;2.22;;;16.40;99.90;;;;;;5079248;28;20031;-79
2022/10/21 10:06:04;;;;;;;5.10;2.10;;;16.40;99.90;;;;;;5097743;28;20062;-79
2022/10/21 10:08:40;;;;;;;7.03;2.65;;;16.50;99.90;;;;;;5097746;28;20024;-80
2022/10/21 10:11:09;;;;;;;8.05;2.40;;;16.50;99.90;;;;;;5098161;28;20024;-79
2022/10/21 10:13:37;;;;;;;6.30;2.38;;;16.50;99.90;;;;;;5115264;28;20039;-79
2022/10/21 10:16:21;;;;;;;5.70;2.42;;;16.60;99.90;;;;;;5097722;28;20118;-78
2022/10/21 10:18:47;;;;;;;8.50;1.65;;;16.60;99.90;;;;;;5097317;28;20031;-79
2022/10/21 10:21:17;;;;;;;3.78;1.80;;;16.60;99.90;;;;;;5098472;28;20127;-78
2022/10/21 10:23:54;;;;;;;4.22;1.60;;;16.60;99.90;;;;;;5092711;28;20044;-78
2022/10/21 10:26:27;;;;;;;3.67;1.70;;;16.60;99.90;;;;;;5104100;28;20028;-79
2022/10/21 10:29:19;;;;;;;2.25;1.25;;;16.70;99.90;;;;;;5082877;28;20131;-78
2022/10/21 10:31:47;;;;;;;4.85;1.10;;;16.80;99.90;;;;;;5065143;28;20039;-78
2022/10/21 10:34:26;;;;;;;4.47;1.30;;;16.80;99.90;;;;;;5085205;28;20143;-78
2022/10/21 10:37:04;;;;;;;3.50;1.50;;;16.80;99.90;;;;;;5082426;28;20039;-78
2022/10/21 10:39:33;;;;;;;2.15;1.13;;;16.80;99.90;;;;;;5092514;28;20031;-79
2022/10/21 10:41:59;;;;;;;4.63;1.20;;;16.90;99.90;;;;;;5100977;28;20047;-77
2022/10/21 10:44:34;;;;;;;7.28;1.50;;;17.00;99.90;;;;;;5086266;28;20607;-77
2022/10/21 10:47:01;;;;;;;6.38;1.33;;;17.10;99.90;;;;;;5091441;28;20028;-77
2022/10/21 10:49:38;;;;;;;3.58;1.33;;;17.10;99.90;;;;;;5079269;28;20377;-78
2022/10/21 10:52:12;;;;;;;1.95;1.00;;;17.10;99.90;;;;;;5089434;28;20106;-77
2022/10/21 10:54:40;;;;;;;3.10;1.13;;;17.10;99.90;;;;;;5083883;28;20036;-74
2022/10/21 10:57:14;;;;;;;4.35;1.58;;;17.20;99.90;;;;;;5091410;28;20086;-78
2022/10/21 10:59:43;;;;;;;4.90;1.35;;;17.30;99.90;;;;;;5096213;28;20028;-76
2022/10/21 11:02:10;;;;;;;3.55;1.40;;;17.30;99.90;;;;;;5086572;28;20032;-77
2022/10/21 11:04:42;;;;;;;4.65;1.30;;;17.30;99.90;;;;;;5031393;28;20140;-78
2022/10/21 11:07:19;;;;;;;;;;;17.40;99.90;;;;;;5031090;28;20041;-77
2022/10/21 11:09:45;;;;;;;4.93;1.40;;;17.40;99.90;;;;;;5037404;28;19908;-82
2022/10/21 11:12:22;;;;;;;3.55;1.67;;;17.40;99.90;;;;;;5037085;28;20121;-81
2022/10/21 11:14:54;;;;;;;5.07;1.30;;;17.50;99.90;;;;;;5036007;28;20482;-79
2022/10/21 11:17:25;;;;;;;3.88;1.48;;;17.50;99.90;;;;;;5035224;28;20033;-78
2022/10/21 11:20:12;;;;;;;3.65;1.45;;;17.60;99.90;;;;;;5034883;28;20033;-79
2022/10/21 11:23:05;;;;;;;7.13;1.83;;;17.60;99.90;;;;;;5026226;28;20083;-78
2022/10/21 11:25:43;;;;;;;8.45;3.20;;;17.60;99.90;;;;;;5053371;28;20500;-78
2022/10/21 11:28:26;;;;;;;11.20;2.67;;;17.60;99.90;;;;;;5039190;28;20049;-77
2022/10/21 11:30:52;;;;;;;7.22;3.08;;;17.60;99.90;;;;;;5034788;28;20037;-81
2022/10/21 11:33:31;;;;;;;7.90;2.45;;;17.60;99.90;;;;;;5034781;28;20021;-78
2022/10/21 11:36:16;;;;;;;5.55;1.65;;;17.60;99.90;;;;;;5086160;28;20039;-78
2022/10/21 11:39:21;;;;;;;3.30;1.20;;;17.70;99.90;;;;;;5095745;28;20521;-79
2022/10/21 11:42:10;;;;;;;6.22;1.70;;;17.70;99.90;;;;;;5113135;28;20027;-78
2022/10/21 11:45:11;;;;;;;3.70;1.38;;;17.70;99.90;;;;;;5095630;28;20035;-79
2022/10/21 11:47:44;;;;;;;5.27;1.57;;;17.70;99.90;;;;;;5096396;28;20020;-82
2022/10/21 11:50:33;;;;;;;4.50;1.42;;;17.80;99.90;;;;;;5115188;28;20029;-81
2022/10/21 11:53:25;;;;;;;7.70;1.45;;;17.80;99.90;;;;;;5096604;28;20020;-85
2022/10/21 11:56:21;;;;;;;2.88;1.10;;;17.90;99.90;;;;;;5096317;28;20084;-89
2022/10/21 11:58:55;;;;;;;2.17;0.90;;;17.90;99.90;;;;;;5095870;28;20085;-86
2022/10/21 12:01:46;;;;;;;4.18;1.27;;;18.00;99.90;;;;;;5096672;28;20039;-89
2022/10/21 12:04:38;;;;;;;5.78;1.33;;;18.00;99.90;;;;;;5096649;28;20031;-87
2022/10/21 12:07:26;;;;;;;3.15;1.00;;;18.00;99.90;;;;;;5051703;28;20104;-88
2022/10/21 12:10:00;;;;;;;2.88;1.00;;;18.00;99.90;;;;;;5095805;28;20473;-89
2022/10/21 12:12:33;;;;;;;3.58;1.30;;;18.00;99.90;;;;;;5096696;28;20076;-89
2022/10/21 12:15:04;;;;;;;3.78;1.20;;;18.10;99.90;;;;;;5096492;28;20112;-90
2022/10/21 12:17:33;;;;;;;7.22;1.35;;;18.10;99.90;;;;;;5096656;28;20023;-89
2022/10/21 12:20:02;;;;;;;2.88;1.00;;;18.10;99.90;;;;;;5114064;28;20465;-89
2022/10/21 12:22:30;;;;;;;4.32;1.33;;;18.10;99.90;;;;;;5096458;28;20043;-89
2022/10/21 12:25:19;;;;;;;3.20;1.10;;;18.10;99.90;;;;;;5114265;28;20020;-88
2022/10/21 12:28:11;;;;;;;2.63;1.52;;;18.20;99.90;;;;;;5113954;28;20481;-89
2022/10/21 12:30:42;;;;;;;3.65;1.05;;;18.20;99.90;;;;;;5096157;28;20426;-88
2022/10/21 12:33:36;;;;;;;3.88;1.15;;;18.30;99.90;;;;;;5096502;28;20059;-88
2022/10/21 12:36:18;;;;;;;4.13;1.10;;;18.40;99.90;;;;;;5114743;28;20043;-89
2022/10/21 12:38:47;;;;;;;3.55;0.90;;;18.30;99.90;;;;;;5113901;28;20059;-88
2022/10/21 12:41:37;;;;;;;3.13;0.98;;;18.40;99.90;;;;;;5096042;28;20023;-86
2022/10/21 12:44:26;;;;;;;2.38;0.85;;;18.40;99.90;;;;;;5096394;28;20023;-85
2022/10/21 12:46:55;;;;;;;2.10;0.90;;;18.40;99.90;;;;;;5094806;28;20459;-87
2022/10/21 12:49:22;;;;;;;6.43;1.20;;;18.50;99.90;;;;;;5096155;28;20035;-89
2022/10/21 12:51:54;;;;;;;3.08;1.10;;;18.50;99.90;;;;;;5095748;28;20019;-88
2022/10/21 12:54:30;;;;;;;4.10;1.35;;;18.60;99.90;;;;;;5095877;28;20110;-88
2022/10/21 12:57:05;;;;;;;4.18;0.90;;;18.70;99.90;;;;;;5113581;28;20042;-89
2022/10/21 12:59:34;;;;;;;2.08;0.70;;;18.60;99.90;;;;;;5096101;28;20055;-84